createdAt,value
2018-06-21T00:00:10.520Z,1003.48
2018-06-21T00:01:10.500Z,1003.46
2018-06-21T00:02:10.474Z,1003.44
2018-06-21T00:03:10.447Z,1003.45
2018-06-21T00:04:10.420Z,1003.42
2018-06-21T00:05:10.401Z,1003.40
2018-06-21T00:06:10.375Z,1003.37
2018-06-21T00:07:10.360Z,1003.40
2018-06-21T00:08:10.330Z,1003.39
2018-06-21T00:09:10.315Z,1003.38
2018-06-21T00:10:10.300Z,1003.39
2018-06-21T00:11:10.267Z,1003.34
2018-06-21T00:12:10.247Z,1003.30
2018-06-21T00:13:10.223Z,1003.31
2018-06-21T00:14:10.193Z,1003.28
2018-06-21T00:15:10.178Z,1003.31
2018-06-21T00:16:10.206Z,1003.31
2018-06-21T00:17:10.127Z,1003.28
2018-06-21T00:18:10.106Z,1003.27
2018-06-21T00:19:10.078Z,1003.22
2018-06-21T00:20:10.058Z,1003.20
2018-06-21T00:21:10.043Z,1003.21
2018-06-21T00:22:10.016Z,1003.18
2018-06-21T00:23:09.995Z,1003.18
2018-06-21T00:24:09.976Z,1003.21
2018-06-21T00:25:09.958Z,1003.18
2018-06-21T00:26:09.926Z,1003.17
2018-06-21T00:27:09.898Z,1003.17
2018-06-21T00:28:09.873Z,1003.15
2018-06-21T00:29:09.858Z,1003.14
2018-06-21T00:30:09.836Z,1003.13
2018-06-21T00:31:09.808Z,1003.12
2018-06-21T00:32:09.785Z,1003.13
2018-06-21T00:33:09.759Z,1003.15
2018-06-21T00:34:09.744Z,1003.17
2018-06-21T00:35:09.722Z,1003.16
2018-06-21T00:36:09.691Z,1003.17
2018-06-21T00:37:09.676Z,1003.12
2018-06-21T00:38:09.646Z,1003.15
2018-06-21T00:39:09.630Z,1003.12
2018-06-21T00:40:09.605Z,1003.12
2018-06-21T00:41:09.578Z,1003.12
2018-06-21T00:42:09.562Z,1003.15
2018-06-21T00:43:09.531Z,1003.09
2018-06-21T00:44:09.519Z,1003.12
2018-06-21T00:45:09.489Z,1003.07
2018-06-21T00:46:09.462Z,1003.08
2018-06-21T00:47:09.449Z,1003.07
2018-06-21T00:48:09.415Z,1003.10
2018-06-21T00:49:09.398Z,1003.07
2018-06-21T00:50:09.372Z,1003.05
2018-06-21T00:51:09.347Z,1003.04
2018-06-21T00:52:09.326Z,1003.03
2018-06-21T00:53:09.306Z,1003.06
2018-06-21T00:54:09.291Z,1003.08
2018-06-21T00:55:09.255Z,1003.06
2018-06-21T00:56:09.244Z,1003.05
2018-06-21T00:57:09.208Z,1003.03
2018-06-21T00:58:09.186Z,1003.05
2018-06-21T00:59:09.173Z,1003.03
2018-06-21T01:00:09.146Z,1003.05
2018-06-21T01:01:09.126Z,1003.02
2018-06-21T01:02:09.097Z,1003.03
2018-06-21T01:03:09.075Z,1002.99
2018-06-21T01:04:09.052Z,1003.00
2018-06-21T01:05:09.031Z,1003.01
2018-06-21T01:06:09.015Z,1002.97
2018-06-21T01:07:08.982Z,1002.97
2018-06-21T01:08:08.962Z,1002.94
2018-06-21T01:09:08.948Z,1002.94
2018-06-21T01:10:08.909Z,1002.90
2018-06-21T01:11:08.888Z,1002.93
2018-06-21T01:12:08.863Z,1002.92
2018-06-21T01:13:08.850Z,1002.92
2018-06-21T01:14:08.830Z,1002.90
2018-06-21T01:15:08.794Z,1002.90
2018-06-21T01:16:08.783Z,1002.87
2018-06-21T01:17:08.756Z,1002.84
2018-06-21T01:18:08.724Z,1002.84
2018-06-21T01:19:08.712Z,1002.83
2018-06-21T01:20:08.694Z,1002.80
2018-06-21T01:21:08.667Z,1002.76
2018-06-21T01:22:08.636Z,1002.77
2018-06-21T01:23:08.617Z,1002.73
2018-06-21T01:24:08.593Z,1002.69
2018-06-21T01:25:08.571Z,1002.64
2018-06-21T01:26:08.549Z,1002.68
2018-06-21T01:27:08.517Z,1002.65
2018-06-21T01:28:08.496Z,1002.62
2018-06-21T01:29:08.474Z,1002.61
2018-06-21T01:30:08.449Z,1002.57
2018-06-21T01:31:08.427Z,1002.56
2018-06-21T01:32:08.408Z,1002.57
2018-06-21T01:33:08.381Z,1002.53
2018-06-21T01:34:08.372Z,1002.48
2018-06-21T01:35:08.340Z,1002.46
2018-06-21T01:36:08.323Z,1002.46
2018-06-21T01:37:08.293Z,1002.43
2018-06-21T01:38:08.264Z,1002.45
2018-06-21T01:39:08.248Z,1002.39
2018-06-21T01:40:08.221Z,1002.40
2018-06-21T01:41:08.196Z,1002.34
2018-06-21T01:42:08.177Z,1002.37
2018-06-21T01:43:08.150Z,1002.34
2018-06-21T01:44:08.129Z,1002.30
2018-06-21T01:45:08.225Z,1002.31
2018-06-21T01:46:08.084Z,1002.29
2018-06-21T01:47:08.053Z,1002.28
2018-06-21T01:48:08.033Z,1002.25
2018-06-21T01:49:08.014Z,1002.22
2018-06-21T01:50:07.989Z,1002.21
2018-06-21T01:51:07.966Z,1002.20
2018-06-21T01:52:07.942Z,1002.22
2018-06-21T01:53:07.916Z,1002.20
2018-06-21T01:54:07.893Z,1002.16
2018-06-21T01:55:07.873Z,1002.13
2018-06-21T01:56:07.847Z,1002.15
2018-06-21T01:57:07.827Z,1002.12
2018-06-21T01:58:07.818Z,1002.13
2018-06-21T01:59:07.779Z,1002.11
2018-06-21T02:00:07.753Z,1002.09
2018-06-21T02:01:07.733Z,1002.08
2018-06-21T02:02:07.705Z,1002.07
2018-06-21T02:03:07.689Z,1002.01
2018-06-21T02:04:07.662Z,1001.98
2018-06-21T02:05:07.663Z,1002.00
2018-06-21T02:06:07.624Z,1001.99
2018-06-21T02:07:07.585Z,1001.96
2018-06-21T02:08:07.640Z,1001.95
2018-06-21T02:09:07.540Z,1001.90
2018-06-21T02:10:07.518Z,1001.92
2018-06-21T02:11:07.519Z,1001.91
2018-06-21T02:12:07.473Z,1001.89
2018-06-21T02:13:07.455Z,1001.91
2018-06-21T02:14:07.424Z,1001.90
2018-06-21T02:15:07.401Z,1001.87
2018-06-21T02:16:07.376Z,1001.86
2018-06-21T02:17:07.362Z,1001.89
2018-06-21T02:18:07.339Z,1001.87
2018-06-21T02:19:07.306Z,1001.89
2018-06-21T02:20:07.292Z,1001.90
2018-06-21T02:21:07.268Z,1001.89
2018-06-21T02:22:07.248Z,1001.88
2018-06-21T02:23:07.221Z,1001.84
2018-06-21T02:24:07.190Z,1001.78
2018-06-21T02:25:07.175Z,1001.78
2018-06-21T02:26:07.148Z,1001.77
2018-06-21T02:27:07.124Z,1001.73
2018-06-21T02:28:07.100Z,1001.76
2018-06-21T02:29:07.077Z,1001.79
2018-06-21T02:30:07.058Z,1001.75
2018-06-21T02:31:07.029Z,1001.75
2018-06-21T02:32:07.007Z,1001.73
2018-06-21T02:33:06.984Z,1001.71
2018-06-21T02:34:06.958Z,1001.75
2018-06-21T02:35:06.935Z,1001.74
2018-06-21T02:36:06.908Z,1001.75
2018-06-21T02:37:06.887Z,1001.73
2018-06-21T02:38:06.868Z,1001.73
2018-06-21T02:39:06.844Z,1001.75
2018-06-21T02:40:06.823Z,1001.68
2018-06-21T02:41:06.798Z,1001.66
2018-06-21T02:42:06.790Z,1001.65
2018-06-21T02:43:06.748Z,1001.65
2018-06-21T02:44:06.724Z,1001.64
2018-06-21T02:45:06.705Z,1001.65
2018-06-21T02:46:06.678Z,1001.65
2018-06-21T02:47:06.651Z,1001.63
2018-06-21T02:48:06.656Z,1001.61
2018-06-21T02:49:06.616Z,1001.59
2018-06-21T02:50:06.581Z,1001.59
2018-06-21T02:51:06.556Z,1001.61
2018-06-21T02:52:06.539Z,1001.59
2018-06-21T02:53:06.512Z,1001.62
2018-06-21T02:54:06.486Z,1001.58
2018-06-21T02:55:06.470Z,1001.63
2018-06-21T02:56:06.441Z,1001.53
2018-06-21T02:57:06.417Z,1001.55
2018-06-21T02:58:06.402Z,1001.59
2018-06-21T02:59:06.369Z,1001.59
2018-06-21T03:00:06.395Z,1001.59
2018-06-21T03:01:06.390Z,1001.61
2018-06-21T03:02:06.297Z,1001.62
2018-06-21T03:03:06.333Z,1001.61
2018-06-21T03:04:06.268Z,1001.67
2018-06-21T03:05:06.225Z,1001.65
2018-06-21T03:06:06.206Z,1001.68
2018-06-21T03:07:06.190Z,1001.73
2018-06-21T03:08:06.151Z,1001.77
2018-06-21T03:09:06.136Z,1001.75
2018-06-21T03:10:06.110Z,1001.73
2018-06-21T03:11:06.087Z,1001.73
2018-06-21T03:12:06.063Z,1001.68
2018-06-21T03:13:06.039Z,1001.67
2018-06-21T03:14:06.016Z,1001.68
2018-06-21T03:15:05.988Z,1001.69
2018-06-21T03:16:05.966Z,1001.71
2018-06-21T03:17:05.942Z,1001.67
2018-06-21T03:18:05.913Z,1001.68
2018-06-21T03:19:05.903Z,1001.73
2018-06-21T03:20:05.871Z,1001.68
2018-06-21T03:21:05.856Z,1001.74
2018-06-21T03:22:05.872Z,1001.67
2018-06-21T03:23:05.793Z,1001.70
2018-06-21T03:24:05.778Z,1001.68
2018-06-21T03:25:05.750Z,1001.67
2018-06-21T03:26:05.728Z,1001.65
2018-06-21T03:27:05.702Z,1001.71
2018-06-21T03:28:05.674Z,1001.61
2018-06-21T03:29:05.661Z,1001.61
2018-06-21T03:30:05.638Z,1001.64
2018-06-21T03:31:05.608Z,1001.66
2018-06-21T03:32:05.581Z,1001.75
2018-06-21T03:33:05.560Z,1001.72
2018-06-21T03:34:05.532Z,1001.72
2018-06-21T03:35:05.513Z,1001.76
2018-06-21T03:36:05.485Z,1001.67
2018-06-21T03:37:05.460Z,1001.64
2018-06-21T03:38:05.444Z,1001.61
2018-06-21T03:39:05.412Z,1001.63
2018-06-21T03:40:05.386Z,1001.53
2018-06-21T03:41:05.369Z,1001.59
2018-06-21T03:42:05.346Z,1001.44
2018-06-21T03:43:05.313Z,1001.41
2018-06-21T03:44:05.317Z,1001.43
2018-06-21T03:45:05.274Z,1001.40
2018-06-21T03:46:05.247Z,1001.40
2018-06-21T03:47:05.222Z,1001.41
2018-06-21T03:48:05.195Z,1001.42
2018-06-21T03:49:05.177Z,1001.41
2018-06-21T03:50:05.145Z,1001.50
2018-06-21T03:51:05.129Z,1001.42
2018-06-21T03:52:05.098Z,1001.38
2018-06-21T03:53:05.096Z,1001.31
2018-06-21T03:54:05.060Z,1001.28
2018-06-21T03:55:05.025Z,1001.28
2018-06-21T03:56:05.072Z,1001.22
2018-06-21T03:57:04.980Z,1001.26
2018-06-21T03:58:04.950Z,1001.25
2018-06-21T03:59:04.935Z,1001.16
2018-06-21T04:00:04.908Z,1001.18
2018-06-21T04:01:04.884Z,1001.13
2018-06-21T04:02:04.867Z,1001.15
2018-06-21T04:03:04.884Z,1001.14
2018-06-21T04:04:04.810Z,1001.12
2018-06-21T04:05:04.788Z,1001.15
2018-06-21T04:06:04.768Z,1001.09
2018-06-21T04:07:04.739Z,1001.09
2018-06-21T04:08:04.720Z,1001.06
2018-06-21T04:09:04.688Z,1001.08
2018-06-21T04:10:04.668Z,1001.17
2018-06-21T04:11:04.649Z,1001.22
2018-06-21T04:12:04.614Z,1001.26
2018-06-21T04:13:04.599Z,1001.23
2018-06-21T04:14:04.575Z,1001.24
2018-06-21T04:15:04.546Z,1001.27
2018-06-21T04:16:04.527Z,1001.25
2018-06-21T04:17:04.492Z,1001.24
2018-06-21T04:18:04.476Z,1001.31
2018-06-21T04:19:04.454Z,1001.35
2018-06-21T04:20:04.421Z,1001.26
2018-06-21T04:21:04.422Z,1001.29
2018-06-21T04:22:04.374Z,1001.27
2018-06-21T04:23:04.356Z,1001.30
2018-06-21T04:24:04.326Z,1001.31
2018-06-21T04:25:04.309Z,1001.23
2018-06-21T04:26:04.285Z,1001.30
2018-06-21T04:27:04.273Z,1001.24
2018-06-21T04:28:04.237Z,1001.26
2018-06-21T04:29:04.205Z,1001.26
2018-06-21T04:30:04.188Z,1001.27
2018-06-21T04:31:04.160Z,1001.27
2018-06-21T04:32:04.145Z,1001.20
2018-06-21T04:33:04.148Z,1001.24
2018-06-21T04:34:04.092Z,1001.28
2018-06-21T04:35:04.059Z,1001.25
2018-06-21T04:36:04.046Z,1001.26
2018-06-21T04:37:04.010Z,1001.26
2018-06-21T04:38:03.995Z,1001.28
2018-06-21T04:39:03.968Z,1001.29
2018-06-21T04:40:03.944Z,1001.27
2018-06-21T04:41:03.919Z,1001.26
2018-06-21T04:42:03.905Z,1001.25
2018-06-21T04:43:03.868Z,1001.29
2018-06-21T04:44:03.840Z,1001.30
2018-06-21T04:45:03.836Z,1001.31
2018-06-21T04:46:03.796Z,1001.29
2018-06-21T04:47:03.775Z,1001.32
2018-06-21T04:48:03.756Z,1001.36
2018-06-21T04:49:03.739Z,1001.31
2018-06-21T04:50:03.698Z,1001.31
2018-06-21T04:51:03.683Z,1001.28
2018-06-21T04:52:03.660Z,1001.34
2018-06-21T04:53:03.628Z,1001.30
2018-06-21T04:54:03.603Z,1001.30
2018-06-21T04:55:03.623Z,1001.31
2018-06-21T04:56:03.557Z,1001.26
2018-06-21T04:57:03.539Z,1001.20
2018-06-21T04:58:03.518Z,1001.17
2018-06-21T04:59:03.480Z,1001.22
2018-06-21T05:00:03.472Z,1001.24
2018-06-21T05:01:03.448Z,1001.33
2018-06-21T05:02:03.414Z,1001.27
2018-06-21T05:03:03.390Z,1001.28
2018-06-21T05:04:03.366Z,1001.29
2018-06-21T05:05:03.342Z,1001.29
2018-06-21T05:06:03.317Z,1001.33
2018-06-21T05:07:03.296Z,1001.29
2018-06-21T05:08:03.266Z,1001.31
2018-06-21T05:09:03.250Z,1001.29
2018-06-21T05:10:03.216Z,1001.30
2018-06-21T05:11:03.194Z,1001.34
2018-06-21T05:12:03.167Z,1001.36
2018-06-21T05:13:03.152Z,1001.39
2018-06-21T05:14:03.122Z,1001.32
2018-06-21T05:15:03.101Z,1001.28
2018-06-21T05:16:03.077Z,1001.30
2018-06-21T05:17:03.048Z,1001.29
2018-06-21T05:18:03.029Z,1001.32
2018-06-21T05:19:03.010Z,1001.33
2018-06-21T05:20:02.976Z,1001.27
2018-06-21T05:21:02.960Z,1001.27
2018-06-21T05:22:02.960Z,1001.25
2018-06-21T05:23:02.903Z,1001.23
2018-06-21T05:24:02.883Z,1001.18
2018-06-21T05:25:02.904Z,1001.21
2018-06-21T05:26:02.831Z,1001.19
2018-06-21T05:27:02.803Z,1001.26
2018-06-21T05:28:02.782Z,1001.21
2018-06-21T05:29:02.743Z,1001.19
2018-06-21T05:30:02.722Z,1001.25
2018-06-21T05:31:02.703Z,1001.15
2018-06-21T05:32:02.708Z,1001.18
2018-06-21T05:33:02.655Z,1001.23
2018-06-21T05:34:02.633Z,1001.25
2018-06-21T05:35:02.618Z,1001.30
2018-06-21T05:36:02.593Z,1001.32
2018-06-21T05:37:02.556Z,1001.35
2018-06-21T05:38:02.527Z,1001.31
2018-06-21T05:39:02.510Z,1001.37
2018-06-21T05:40:02.477Z,1001.31
2018-06-21T05:41:02.463Z,1001.31
2018-06-21T05:42:02.430Z,1001.35
2018-06-21T05:43:02.413Z,1001.38
2018-06-21T05:44:02.381Z,1001.31
2018-06-21T05:45:02.381Z,1001.38
2018-06-21T05:46:02.337Z,1001.38
2018-06-21T05:47:02.308Z,1001.40
2018-06-21T05:48:02.292Z,1001.39
2018-06-21T05:49:02.266Z,1001.38
2018-06-21T05:50:02.275Z,1001.37
2018-06-21T05:51:02.214Z,1001.38
2018-06-21T05:52:02.196Z,1001.40
2018-06-21T05:53:02.166Z,1001.35
2018-06-21T05:54:02.143Z,1001.37
2018-06-21T05:55:02.119Z,1001.32
2018-06-21T05:56:02.092Z,1001.32
2018-06-21T05:57:02.083Z,1001.36
2018-06-21T05:58:02.055Z,1001.34
2018-06-21T05:59:02.019Z,1001.33
2018-06-21T06:00:02.005Z,1001.27
2018-06-21T06:01:01.974Z,1001.35
2018-06-21T06:02:02.006Z,1001.31
2018-06-21T06:03:01.929Z,1001.31
2018-06-21T06:04:01.901Z,1001.27
2018-06-21T06:05:01.878Z,1001.33
2018-06-21T06:06:01.857Z,1001.39
2018-06-21T06:07:01.825Z,1001.43
2018-06-21T06:08:01.798Z,1001.36
2018-06-21T06:09:01.800Z,1001.47
2018-06-21T06:10:01.807Z,1001.35
2018-06-21T06:11:01.731Z,1001.38
2018-06-21T06:12:01.701Z,1001.38
2018-06-21T06:13:01.681Z,1001.36
2018-06-21T06:14:01.696Z,1001.43
2018-06-21T06:15:01.625Z,1001.39
2018-06-21T06:16:01.597Z,1001.39
2018-06-21T06:17:01.619Z,1001.46
2018-06-21T06:18:01.559Z,1001.51
2018-06-21T06:19:01.529Z,1001.47
2018-06-21T06:20:01.517Z,1001.61
2018-06-21T06:21:01.480Z,1001.46
2018-06-21T06:22:01.449Z,1001.53
2018-06-21T06:23:01.436Z,1001.51
2018-06-21T06:24:01.413Z,1001.60
2018-06-21T06:26:20.011Z,1001.57
2018-06-21T06:27:21.137Z,1001.53
2018-06-21T06:28:22.546Z,1001.55
2018-06-21T06:29:17.364Z,1001.60
2018-06-21T06:30:17.345Z,1001.63
2018-06-21T06:31:17.315Z,1001.68
2018-06-21T06:32:17.296Z,1001.74
2018-06-21T06:33:17.264Z,1001.85
2018-06-21T06:34:17.238Z,1001.79
2018-06-21T06:35:17.220Z,1001.84
2018-06-21T06:36:17.197Z,1001.83
2018-06-21T06:37:17.170Z,1001.84
2018-06-21T06:38:17.145Z,1001.81
2018-06-21T06:39:17.114Z,1001.83
2018-06-21T06:40:17.152Z,1001.79
2018-06-21T06:41:17.069Z,1001.87
2018-06-21T06:42:17.043Z,1001.87
2018-06-21T06:43:17.019Z,1001.89
2018-06-21T06:44:16.994Z,1001.83
2018-06-21T06:45:16.967Z,1001.86
2018-06-21T06:46:17.005Z,1001.86
2018-06-21T06:47:16.922Z,1001.81
2018-06-21T06:48:16.888Z,1001.85
2018-06-21T06:49:16.866Z,1001.86
2018-06-21T06:50:16.840Z,1001.87
2018-06-21T06:51:16.814Z,1001.90
2018-06-21T06:52:16.791Z,1001.93
2018-06-21T06:53:16.771Z,1001.86
2018-06-21T06:54:16.757Z,1001.90
2018-06-21T06:55:16.722Z,1001.91
2018-06-21T06:56:16.689Z,1001.89
2018-06-21T06:57:16.679Z,1001.92
2018-06-21T06:58:16.646Z,1001.91
2018-06-21T06:59:16.613Z,1002.01
2018-06-21T07:00:16.600Z,1001.97
2018-06-21T07:01:16.564Z,1002.00
2018-06-21T07:02:16.547Z,1002.03
2018-06-21T07:03:16.516Z,1001.99
2018-06-21T07:04:16.491Z,1002.02
2018-06-21T07:05:16.464Z,1002.03
2018-06-21T07:06:16.444Z,1002.07
2018-06-21T07:07:16.423Z,1002.11
2018-06-21T07:08:16.393Z,1002.11
2018-06-21T07:09:16.374Z,1002.09
2018-06-21T07:10:16.349Z,1002.12
2018-06-21T07:11:16.314Z,1002.11
2018-06-21T07:12:16.299Z,1002.17
2018-06-21T07:13:16.264Z,1002.15
2018-06-21T07:14:16.297Z,1002.20
2018-06-21T07:15:16.222Z,1002.15
2018-06-21T07:16:16.194Z,1002.21
2018-06-21T07:17:16.172Z,1002.26
2018-06-21T07:18:16.149Z,1002.28
2018-06-21T07:19:16.128Z,1002.24
2018-06-21T07:20:16.103Z,1002.34
2018-06-21T07:21:16.077Z,1002.32
2018-06-21T07:22:16.053Z,1002.32
2018-06-21T07:23:16.018Z,1002.33
2018-06-21T07:24:15.992Z,1002.26
2018-06-21T07:25:15.972Z,1002.32
2018-06-21T07:26:15.939Z,1002.41
2018-06-21T07:27:15.926Z,1002.41
2018-06-21T07:28:15.905Z,1002.38
2018-06-21T07:29:15.870Z,1002.41
2018-06-21T07:30:15.843Z,1002.42
2018-06-21T07:31:15.821Z,1002.46
2018-06-21T07:32:15.802Z,1002.44
2018-06-21T07:33:15.770Z,1002.55
2018-06-21T07:34:15.753Z,1002.46
2018-06-21T07:35:15.721Z,1002.45
2018-06-21T07:36:15.698Z,1002.49
2018-06-21T07:37:15.673Z,1002.53
2018-06-21T07:38:15.650Z,1002.55
2018-06-21T07:39:15.627Z,1002.53
2018-06-21T07:40:15.592Z,1002.56
2018-06-21T07:41:15.577Z,1002.56
2018-06-21T07:42:15.549Z,1002.50
2018-06-21T07:43:15.523Z,1002.58
2018-06-21T07:44:15.503Z,1002.50
2018-06-21T07:45:15.470Z,1002.51
2018-06-21T07:46:15.455Z,1002.50
2018-06-21T07:47:15.422Z,1002.57
2018-06-21T07:48:15.398Z,1002.56
2018-06-21T07:49:15.375Z,1002.61
2018-06-21T07:50:15.359Z,1002.63
2018-06-21T07:51:15.357Z,1002.77
2018-06-21T07:52:15.305Z,1002.59
2018-06-21T07:53:15.274Z,1002.67
2018-06-21T07:54:15.263Z,1002.66
2018-06-21T07:55:15.228Z,1002.64
2018-06-21T07:56:15.200Z,1002.62
2018-06-21T07:57:15.178Z,1002.58
2018-06-21T07:58:15.153Z,1002.66
2018-06-21T07:59:15.130Z,1002.68
2018-06-21T08:00:15.118Z,1003.05
2018-06-21T08:01:15.077Z,1002.64
2018-06-21T08:02:15.053Z,1002.68
2018-06-21T08:03:15.029Z,1002.65
2018-06-21T08:04:15.003Z,1002.74
2018-06-21T08:05:14.982Z,1002.81
2018-06-21T08:06:14.965Z,1002.92
2018-06-21T08:07:14.930Z,1002.80
2018-06-21T08:08:14.902Z,1002.79
2018-06-21T08:09:14.882Z,1002.88
2018-06-21T08:10:14.855Z,1002.88
2018-06-21T08:11:14.828Z,1002.86
2018-06-21T08:12:14.807Z,1002.82
2018-06-21T08:13:14.779Z,1002.91
2018-06-21T08:14:14.764Z,1002.99
2018-06-21T08:15:14.726Z,1003.09
2018-06-21T08:16:14.703Z,1003.04
2018-06-21T08:17:14.682Z,1002.95
2018-06-21T08:18:14.657Z,1002.95
2018-06-21T08:19:14.629Z,1003.01
2018-06-21T08:20:14.607Z,1003.02
2018-06-21T08:21:14.585Z,1003.10
2018-06-21T08:22:14.557Z,1003.12
2018-06-21T08:23:14.574Z,1003.08
2018-06-21T08:24:14.502Z,1003.15
2018-06-21T08:25:14.495Z,1003.36
2018-06-21T08:26:14.462Z,1003.14
2018-06-21T08:27:14.435Z,1003.18
2018-06-21T08:28:14.405Z,1003.29
2018-06-21T08:29:14.383Z,1003.22
2018-06-21T08:30:14.360Z,1003.18
2018-06-21T08:31:14.349Z,1003.19
2018-06-21T08:32:14.328Z,1003.18
2018-06-21T08:33:14.289Z,1003.22
2018-06-21T08:34:14.267Z,1003.20
2018-06-21T08:35:14.232Z,1003.29
2018-06-21T08:36:14.209Z,1003.31
2018-06-21T08:37:14.195Z,1003.33
2018-06-21T08:38:14.173Z,1003.27
2018-06-21T08:39:14.135Z,1003.37
2018-06-21T08:40:14.109Z,1003.41
2018-06-21T08:41:14.086Z,1003.49
2018-06-21T08:42:14.060Z,1003.43
2018-06-21T08:43:14.033Z,1003.42
2018-06-21T08:44:14.005Z,1003.51
2018-06-21T08:45:13.992Z,1003.56
2018-06-21T08:46:13.962Z,1003.68
2018-06-21T08:47:13.980Z,1003.79
2018-06-21T08:48:14.016Z,1003.58
2018-06-21T08:49:13.883Z,1003.58
2018-06-21T08:50:13.862Z,1003.62
2018-06-21T08:51:13.835Z,1003.68
2018-06-21T08:52:13.810Z,1003.58
2018-06-21T08:53:13.795Z,1003.66
2018-06-21T08:54:13.758Z,1003.65
2018-06-21T08:55:13.742Z,1003.70
2018-06-21T08:56:13.717Z,1003.74
2018-06-21T08:57:13.688Z,1003.91
2018-06-21T08:58:13.672Z,1003.81
2018-06-21T08:59:13.641Z,1003.70
2018-06-21T09:00:13.620Z,1003.77
2018-06-21T09:01:13.592Z,1003.91
2018-06-21T09:02:13.564Z,1003.99
2018-06-21T09:03:13.544Z,1003.98
2018-06-21T09:04:13.513Z,1004.02
2018-06-21T09:05:13.495Z,1003.98
2018-06-21T09:06:13.470Z,1004.26
2018-06-21T09:07:13.437Z,1004.04
2018-06-21T09:08:13.421Z,1003.90
2018-06-21T09:09:13.388Z,1003.97
2018-06-21T09:10:13.366Z,1003.96
2018-06-21T09:11:13.348Z,1004.03
2018-06-21T09:12:13.320Z,1004.02
2018-06-21T09:13:13.301Z,1003.95
2018-06-21T09:14:13.287Z,1004.05
2018-06-21T09:15:13.266Z,1004.19
2018-06-21T09:16:13.225Z,1003.98
2018-06-21T09:17:13.196Z,1004.06
2018-06-21T09:18:13.169Z,1003.98
2018-06-21T09:19:13.157Z,1004.04
2018-06-21T09:20:13.120Z,1003.96
2018-06-21T09:21:13.103Z,1003.97
2018-06-21T09:22:13.791Z,1004.05
2018-06-21T09:23:13.052Z,1003.98
2018-06-21T09:24:13.023Z,1004.09
2018-06-21T09:25:13.000Z,1004.08
2018-06-21T09:26:12.979Z,1004.05
2018-06-21T09:27:12.944Z,1004.01
2018-06-21T09:28:12.925Z,1004.14
2018-06-21T09:29:12.903Z,1004.31
2018-06-21T09:30:12.872Z,1004.19
2018-06-21T09:31:12.855Z,1004.41
2018-06-21T09:32:12.833Z,1004.36
2018-06-21T09:35:18.673Z,1004.23
2018-06-21T09:36:18.624Z,1004.52
2018-06-21T09:37:18.608Z,1004.34
2018-06-21T09:38:18.569Z,1004.52
2018-06-21T09:39:18.561Z,1004.30
2018-06-21T09:40:18.518Z,1004.45
2018-06-21T09:41:18.496Z,1004.32
2018-06-21T09:42:18.473Z,1004.33
2018-06-21T09:43:18.452Z,1004.37
2018-06-21T09:44:18.424Z,1004.26
2018-06-21T09:45:18.399Z,1004.39
2018-06-21T09:46:18.379Z,1004.26
2018-06-21T09:47:18.349Z,1004.26
2018-06-21T09:48:18.404Z,1004.37
2018-06-21T09:49:18.306Z,1004.20
2018-06-21T09:50:18.283Z,1004.30
2018-06-21T09:51:18.249Z,1004.19
2018-06-21T09:52:18.226Z,1004.35
2018-06-21T09:53:18.207Z,1004.16
2018-06-21T09:54:18.185Z,1004.27
2018-06-21T09:55:18.150Z,1004.41
2018-06-21T09:56:18.241Z,1004.29
2018-06-21T09:57:18.098Z,1004.31
2018-06-21T09:58:18.080Z,1004.37
2018-06-21T09:59:18.058Z,1004.39
2018-06-21T10:00:18.027Z,1004.42
2018-06-21T10:01:18.011Z,1004.46
2018-06-21T10:02:17.981Z,1004.45
2018-06-21T10:03:17.959Z,1004.97
2018-06-21T10:04:32.767Z,1004.90
2018-06-21T10:05:17.911Z,1004.63
2018-06-21T10:06:17.885Z,1004.46
2018-06-21T10:07:17.861Z,1004.65
2018-06-21T10:08:17.837Z,1004.56
2018-06-21T10:09:17.814Z,1004.57
2018-06-21T10:10:17.780Z,1004.47
2018-06-21T10:11:17.763Z,1004.51
2018-06-21T10:12:17.732Z,1004.52
2018-06-21T10:13:17.726Z,1004.49
2018-06-21T10:14:17.688Z,1004.58
2018-06-21T10:15:17.667Z,1004.35
2018-06-21T10:16:17.645Z,1004.61
2018-06-21T10:17:17.607Z,1004.60
2018-06-21T10:18:17.679Z,1004.50
2018-06-21T10:19:17.612Z,1004.51
2018-06-21T10:20:17.536Z,1004.50
2018-06-21T10:21:17.518Z,1004.60
2018-06-21T10:22:17.493Z,1004.53
2018-06-21T10:23:17.476Z,1005.00
2018-06-21T10:24:17.439Z,1004.69
2018-06-21T10:25:17.420Z,1004.60
2018-06-21T10:26:17.409Z,1005.01
2018-06-21T10:27:17.371Z,1004.83
2018-06-21T10:28:17.351Z,1004.66
2018-06-21T10:29:17.325Z,1004.58
2018-06-21T10:30:17.293Z,1004.84
2018-06-21T10:31:17.273Z,1005.04
2018-06-21T10:32:17.246Z,1004.69
2018-06-21T10:33:17.242Z,1004.70
2018-06-21T10:34:17.198Z,1004.71
2018-06-21T10:35:17.168Z,1004.81
2018-06-21T10:36:17.153Z,1004.61
2018-06-21T10:37:17.119Z,1004.66
2018-06-21T10:38:17.100Z,1005.04
2018-06-21T10:39:17.087Z,1005.02
2018-06-21T10:40:17.048Z,1004.83
2018-06-21T10:41:17.017Z,1004.69
2018-06-21T10:42:16.995Z,1004.81
2018-06-21T10:43:16.983Z,1004.74
2018-06-21T10:44:16.941Z,1004.76
2018-06-21T10:45:16.932Z,1004.73
2018-06-21T10:46:16.904Z,1004.98
2018-06-21T10:47:16.870Z,1004.94
2018-06-21T10:48:16.846Z,1005.05
2018-06-21T10:49:16.825Z,1005.03
2018-06-21T10:50:16.800Z,1005.13
2018-06-21T10:51:16.830Z,1005.07
2018-06-21T10:52:16.789Z,1005.10
2018-06-21T10:53:16.764Z,1005.09
2018-06-21T10:54:16.734Z,1005.26
2018-06-21T10:55:16.676Z,1005.17
2018-06-21T10:56:16.652Z,1005.35
2018-06-21T10:57:16.631Z,1005.25
2018-06-21T10:58:16.626Z,1005.16
2018-06-21T10:59:16.575Z,1005.45
2018-06-21T11:00:16.555Z,1005.24
2018-06-21T11:01:16.527Z,1005.35
2018-06-21T11:02:16.503Z,1005.18
2018-06-21T11:03:16.524Z,1005.16
2018-06-21T11:04:16.454Z,1005.07
2018-06-21T11:05:16.428Z,1005.30
2018-06-21T11:06:16.416Z,1005.06
2018-06-21T11:07:16.377Z,1005.28
2018-06-21T11:08:16.371Z,1005.25
2018-06-21T11:09:16.358Z,1005.29
2018-06-21T11:10:16.309Z,1005.38
2018-06-21T11:11:16.283Z,1005.23
2018-06-21T11:12:16.254Z,1005.14
2018-06-21T11:13:16.226Z,1005.39
2018-06-21T11:14:16.203Z,1005.34
2018-06-21T11:15:16.186Z,1005.30
2018-06-21T11:16:16.157Z,1005.58
2018-06-21T11:17:16.141Z,1005.31
2018-06-21T11:18:16.104Z,1005.63
2018-06-21T11:19:16.113Z,1005.29
2018-06-21T11:20:16.059Z,1005.39
2018-06-21T11:21:16.067Z,1005.71
2018-06-21T11:22:16.010Z,1005.47
2018-06-21T11:23:15.983Z,1005.36
2018-06-21T11:24:15.959Z,1005.58
2018-06-21T11:25:15.938Z,1005.48
2018-06-21T11:26:15.911Z,1005.39
2018-06-21T11:27:15.883Z,1005.54
2018-06-21T11:28:15.857Z,1005.54
2018-06-21T11:29:15.839Z,1005.42
2018-06-21T11:30:15.818Z,1005.42
2018-06-21T11:31:15.788Z,1005.42
2018-06-21T11:32:15.764Z,1005.37
2018-06-21T11:33:15.733Z,1005.39
2018-06-21T11:34:15.716Z,1005.85
2018-06-21T11:35:15.697Z,1005.60
2018-06-21T11:36:15.669Z,1005.53
2018-06-21T11:37:15.643Z,1005.83
2018-06-21T11:38:15.656Z,1005.51
2018-06-21T11:39:15.591Z,1005.50
2018-06-21T11:40:15.565Z,1005.76
2018-06-21T11:41:15.541Z,1005.63
2018-06-21T11:42:15.514Z,1005.58
2018-06-21T11:43:15.494Z,1005.87
2018-06-21T11:44:15.465Z,1005.77
2018-06-21T11:45:15.457Z,1005.68
2018-06-21T11:46:15.421Z,1005.79
2018-06-21T11:47:15.390Z,1005.60
2018-06-21T11:48:15.377Z,1005.66
2018-06-21T11:49:15.342Z,1005.73
2018-06-21T11:50:15.322Z,1005.92
2018-06-21T11:51:15.292Z,1005.85
2018-06-21T11:52:15.292Z,1005.95
2018-06-21T11:53:15.249Z,1005.89
2018-06-21T11:54:15.217Z,1005.74
2018-06-21T11:55:15.201Z,1005.82
2018-06-21T11:56:15.169Z,1005.73
2018-06-21T11:57:15.151Z,1005.93
2018-06-21T11:58:15.128Z,1006.07
2018-06-21T11:59:15.095Z,1005.84
2018-06-21T12:00:15.067Z,1005.96
2018-06-21T12:01:15.047Z,1006.16
2018-06-21T12:02:15.028Z,1005.89
2018-06-21T12:03:15.014Z,1005.79
2018-06-21T12:04:14.972Z,1005.68
2018-06-21T12:05:14.954Z,1005.84
2018-06-21T12:06:14.925Z,1005.97
2018-06-21T12:07:14.937Z,1005.83
2018-06-21T12:08:14.876Z,1005.94